createdAt,value
2022-11-22T00:53:33.806Z,21.96
2022-11-22T00:54:34.109Z,21.92
2022-11-22T00:55:34.187Z,21.91
2022-11-22T00:56:34.152Z,21.91
2022-11-22T00:57:34.172Z,21.86
2022-11-22T00:58:35.084Z,21.79
2022-11-22T00:59:34.114Z,21.80
2022-11-22T01:00:34.191Z,21.86
2022-11-22T01:01:34.184Z,21.88
2022-11-22T01:02:34.057Z,21.98
2022-11-22T01:03:34.084Z,22.00
2022-11-22T01:04:34.069Z,22.05
2022-11-22T01:05:34.046Z,22.12
2022-11-22T01:06:34.757Z,22.15
2022-11-22T01:07:34.069Z,22.14
2022-11-22T01:08:33.965Z,22.06
2022-11-22T01:09:34.004Z,22.05
2022-11-22T01:10:34.103Z,22.03
2022-11-22T01:11:33.968Z,22.07
2022-11-22T01:12:33.958Z,22.03
2022-11-22T01:13:33.956Z,22.02
2022-11-22T01:14:33.898Z,22.05
2022-11-22T01:15:33.918Z,22.05
2022-11-22T01:16:34.592Z,22.00
2022-11-22T01:17:33.950Z,21.98
2022-11-22T01:18:33.882Z,21.94
2022-11-22T01:19:34.660Z,21.94
2022-11-22T01:20:34.585Z,21.90
2022-11-22T01:21:33.829Z,21.84
2022-11-22T01:22:33.883Z,21.82
2022-11-22T01:23:33.859Z,21.82
2022-11-22T01:24:33.799Z,21.82
2022-11-22T01:25:33.828Z,21.83
2022-11-22T01:26:33.787Z,21.80
2022-11-22T01:27:34.555Z,21.82
2022-11-22T01:28:34.605Z,21.80
2022-11-22T01:29:33.797Z,21.79
2022-11-22T01:30:33.719Z,21.80
2022-11-22T01:31:33.758Z,21.80
2022-11-22T01:32:33.751Z,21.80
2022-11-22T01:33:34.496Z,21.79
2022-11-22T01:34:33.718Z,21.79
2022-11-22T01:35:33.682Z,21.80
2022-11-22T01:36:33.640Z,21.83
2022-11-22T01:37:33.688Z,21.90
2022-11-22T01:38:34.405Z,21.92
2022-11-22T01:39:33.737Z,21.92
2022-11-22T01:40:33.642Z,21.91
2022-11-22T01:41:33.617Z,21.91
2022-11-22T01:42:33.587Z,21.92
2022-11-22T01:43:33.623Z,21.90
2022-11-22T01:44:33.618Z,21.88
2022-11-22T01:45:33.605Z,21.90
2022-11-22T01:46:33.579Z,21.92
2022-11-22T01:47:33.564Z,22.00
2022-11-22T01:48:33.574Z,22.06
2022-11-22T01:49:34.144Z,22.07
2022-11-22T01:50:33.514Z,22.14
2022-11-22T01:51:33.548Z,22.14
2022-11-22T01:52:33.504Z,22.15
2022-11-22T01:53:34.236Z,22.10
2022-11-22T01:54:33.429Z,22.06
2022-11-22T01:55:33.473Z,22.03
2022-11-22T01:56:33.454Z,22.00
2022-11-22T01:57:34.214Z,21.96
2022-11-22T01:58:33.613Z,21.92
2022-11-22T01:59:34.201Z,21.92
2022-11-22T02:00:34.076Z,21.94
2022-11-22T02:01:33.456Z,21.94
2022-11-22T02:02:33.470Z,21.94
2022-11-22T02:03:33.427Z,21.94
2022-11-22T02:04:33.371Z,21.96
2022-11-22T02:05:33.378Z,21.94
2022-11-22T02:06:33.351Z,21.86
2022-11-22T02:07:33.365Z,21.84
2022-11-22T02:08:33.321Z,21.88
2022-11-22T02:09:33.430Z,21.94
2022-11-22T02:10:33.331Z,22.05
2022-11-22T02:11:34.589Z,22.15
2022-11-22T02:12:33.265Z,22.21
2022-11-22T02:13:33.298Z,22.24
2022-11-22T02:14:33.288Z,22.22
2022-11-22T02:15:33.275Z,22.14
2022-11-22T02:16:33.622Z,22.06
2022-11-22T02:17:33.195Z,22.07
2022-11-22T02:18:33.195Z,22.14
2022-11-22T02:19:33.236Z,22.17
2022-11-22T02:20:33.166Z,22.15
2022-11-22T02:21:33.225Z,22.07
2022-11-22T02:22:33.201Z,22.00
2022-11-22T02:23:33.144Z,21.92
2022-11-22T02:24:34.127Z,21.84
2022-11-22T02:25:34.131Z,21.79
2022-11-22T02:26:33.107Z,21.75
2022-11-22T02:27:34.136Z,21.69
2022-11-22T02:28:33.139Z,21.67
2022-11-22T02:29:33.114Z,21.64
2022-11-22T02:30:33.081Z,21.64
2022-11-22T02:31:33.100Z,21.59
2022-11-22T02:32:33.052Z,21.56
2022-11-22T02:33:33.078Z,21.56
2022-11-22T02:34:33.044Z,21.54
2022-11-22T02:35:33.068Z,21.61
2022-11-22T02:36:32.962Z,21.71
2022-11-22T02:37:33.059Z,21.71
2022-11-22T02:38:32.973Z,21.75
2022-11-22T02:39:33.092Z,21.75
2022-11-22T02:40:32.978Z,21.75
2022-11-22T02:41:33.683Z,21.74
2022-11-22T02:42:32.947Z,21.67
2022-11-22T02:43:32.945Z,21.61
2022-11-22T02:44:33.034Z,21.59
2022-11-22T02:45:33.699Z,21.54
2022-11-22T02:46:33.046Z,21.50
2022-11-22T02:47:33.744Z,21.47
2022-11-22T02:48:32.860Z,21.46
2022-11-22T02:49:33.207Z,21.43
2022-11-22T02:50:32.854Z,21.43
2022-11-22T02:51:32.898Z,21.43
2022-11-22T02:52:34.754Z,21.42
2022-11-22T02:53:32.804Z,21.44
2022-11-22T02:54:32.836Z,21.46
2022-11-22T02:55:32.807Z,21.50
2022-11-22T02:56:32.809Z,21.53
2022-11-22T02:57:32.742Z,21.53
2022-11-22T02:58:32.807Z,21.56
2022-11-22T02:59:32.802Z,21.56
2022-11-22T03:00:32.787Z,21.62
2022-11-22T03:01:32.782Z,21.67
2022-11-22T03:02:32.710Z,21.71
2022-11-22T03:03:32.708Z,21.71
2022-11-22T03:04:32.961Z,21.71
2022-11-22T03:05:32.639Z,21.72
2022-11-22T03:06:32.702Z,21.65
2022-11-22T03:07:32.675Z,21.64
2022-11-22T03:08:32.670Z,21.59
2022-11-22T03:09:33.012Z,21.50
2022-11-22T03:10:32.650Z,21.44
2022-11-22T03:11:32.611Z,21.38
2022-11-22T03:12:32.608Z,21.34
2022-11-22T03:13:32.581Z,21.32
2022-11-22T03:14:32.617Z,21.27
2022-11-22T03:15:32.583Z,21.28
2022-11-22T03:16:33.140Z,21.27
2022-11-22T03:17:32.541Z,21.24
2022-11-22T03:18:32.560Z,21.24
2022-11-22T03:19:32.825Z,21.25
2022-11-22T03:20:32.551Z,21.27
2022-11-22T03:21:32.518Z,21.27
2022-11-22T03:22:32.525Z,21.25
2022-11-22T03:23:32.475Z,21.25
2022-11-22T03:24:32.489Z,21.24
2022-11-22T03:25:32.412Z,21.22
2022-11-22T03:26:32.464Z,21.22
2022-11-22T03:27:32.446Z,21.22
2022-11-22T03:28:32.472Z,21.24
2022-11-22T03:29:32.650Z,21.22
2022-11-22T03:30:32.463Z,21.16
2022-11-22T03:31:32.401Z,21.13
2022-11-22T03:32:32.361Z,21.13
2022-11-22T03:33:32.376Z,21.12
2022-11-22T03:34:32.653Z,21.10
2022-11-22T03:35:32.293Z,21.12
2022-11-22T03:36:32.367Z,21.12
2022-11-22T03:37:32.343Z,21.10
2022-11-22T03:38:33.236Z,21.07
2022-11-22T03:39:32.660Z,21.06
2022-11-22T03:40:32.300Z,21.03
2022-11-22T03:41:32.296Z,21.03
2022-11-22T03:42:32.312Z,21.03
2022-11-22T03:43:32.259Z,21.06
2022-11-22T04:01:52.292Z,21.01
2022-11-22T04:02:53.140Z,21.01
2022-11-22T04:03:53.156Z,21.04
2022-11-22T04:04:53.164Z,21.09
2022-11-22T04:05:53.178Z,21.16
2022-11-22T04:06:53.357Z,21.21
2022-11-22T04:07:53.161Z,21.24
2022-11-22T04:08:53.117Z,21.27
2022-11-22T04:09:53.114Z,21.32
2022-11-22T04:10:53.077Z,21.32
2022-11-22T04:11:53.094Z,21.31
2022-11-22T04:12:53.026Z,21.28
2022-11-22T04:13:53.049Z,21.28
2022-11-22T04:14:53.017Z,21.29
2022-11-22T04:15:53.040Z,21.28
2022-11-22T04:16:52.994Z,21.28
2022-11-22T04:18:39.621Z,21.27
2022-11-22T04:18:53.688Z,21.24
2022-11-22T04:19:52.953Z,21.24
2022-11-22T04:20:52.924Z,21.22
2022-11-22T04:21:52.925Z,21.25
2022-11-22T04:22:52.963Z,21.25
2022-11-22T04:23:52.965Z,21.25
2022-11-22T04:24:52.945Z,21.29
2022-11-22T04:25:52.890Z,21.31
2022-11-22T04:26:52.862Z,21.34
2022-11-22T04:27:52.840Z,21.37
2022-11-22T04:29:09.254Z,21.35
2022-11-22T04:29:52.940Z,21.34
2022-11-22T04:30:52.827Z,21.35
2022-11-22T04:31:52.806Z,21.34
2022-11-22T04:32:52.812Z,21.32
2022-11-22T04:33:52.817Z,21.31
2022-11-22T04:34:52.816Z,21.28
2022-11-22T04:35:52.804Z,21.14
2022-11-22T04:36:52.782Z,20.94
2022-11-22T04:37:52.761Z,20.80
2022-11-22T04:38:53.495Z,20.76
2022-11-22T04:39:52.747Z,20.74
2022-11-22T04:40:52.687Z,20.77
2022-11-22T04:41:52.690Z,20.76
2022-11-22T04:42:54.960Z,20.80
2022-11-22T04:43:52.690Z,20.85
2022-11-22T04:44:52.687Z,20.80
2022-11-22T04:45:52.703Z,20.80
2022-11-22T04:46:52.637Z,20.80
2022-11-22T04:47:52.659Z,20.85
2022-11-22T04:48:52.649Z,20.87
2022-11-22T04:49:52.646Z,20.87
2022-11-22T04:50:52.630Z,20.88
2022-11-22T04:51:52.616Z,20.88
2022-11-22T04:52:52.590Z,20.89
2022-11-22T04:53:52.556Z,20.95
2022-11-22T04:54:52.604Z,21.01
2022-11-22T04:55:52.561Z,21.04
2022-11-22T04:56:53.460Z,21.07
2022-11-22T04:57:58.844Z,21.04
2022-11-22T04:58:52.513Z,21.01
2022-11-22T04:59:52.506Z,20.95
2022-11-22T05:00:55.082Z,20.85
2022-11-22T05:01:52.555Z,20.76
2022-11-22T05:02:52.453Z,20.72
2022-11-22T05:03:52.487Z,20.72
2022-11-22T05:04:52.462Z,20.69
2022-11-22T05:05:52.514Z,20.67
2022-11-22T05:06:52.505Z,20.67
2022-11-22T05:07:52.540Z,20.67
2022-11-22T05:08:53.302Z,20.69
2022-11-22T05:09:52.417Z,20.72
2022-11-22T05:10:52.434Z,20.74
2022-11-22T05:11:52.418Z,20.73
2022-11-22T05:12:53.288Z,20.74
2022-11-22T05:13:52.334Z,20.77
2022-11-22T05:14:52.324Z,20.82
2022-11-22T05:15:52.342Z,20.85
2022-11-22T05:16:52.327Z,20.87
2022-11-22T05:17:52.347Z,20.84
2022-11-22T05:18:52.315Z,20.80
2022-11-22T05:19:52.286Z,20.76
2022-11-22T05:20:52.299Z,20.73
2022-11-22T05:21:52.280Z,20.70
2022-11-22T05:22:52.288Z,20.64
2022-11-22T05:23:52.252Z,20.57
2022-11-22T05:24:52.245Z,20.57
2022-11-22T05:25:52.181Z,20.58
2022-11-22T05:26:52.720Z,20.59
2022-11-22T05:27:52.650Z,20.61
2022-11-22T05:28:52.566Z,20.57
2022-11-22T05:29:53.615Z,20.57
2022-11-22T05:30:52.831Z,20.55
2022-11-22T05:31:52.109Z,20.54
2022-11-22T05:32:52.264Z,20.52
2022-11-22T05:33:52.129Z,20.54
2022-11-22T05:34:52.127Z,20.55
2022-11-22T05:35:52.069Z,20.55
2022-11-22T05:36:52.178Z,20.55
2022-11-22T05:37:52.067Z,20.61
2022-11-22T05:38:52.097Z,20.64
2022-11-22T05:39:52.054Z,20.67
2022-11-22T05:40:52.076Z,20.70
2022-11-22T05:41:52.003Z,20.73
2022-11-22T05:42:52.094Z,20.76
2022-11-22T05:43:52.039Z,20.79
2022-11-22T05:44:51.994Z,20.77
2022-11-22T05:45:51.941Z,20.73
2022-11-22T05:46:51.978Z,20.72
2022-11-22T05:47:51.947Z,20.67
2022-11-22T05:48:52.104Z,20.67
2022-11-22T05:49:51.919Z,20.66
2022-11-22T05:50:51.939Z,20.64
2022-11-22T05:51:51.877Z,20.61
2022-11-22T05:52:51.935Z,20.59
2022-11-22T05:53:51.919Z,20.59
2022-11-22T05:54:51.928Z,20.59
2022-11-22T05:55:51.872Z,20.67
2022-11-22T05:56:51.887Z,20.69
2022-11-22T05:57:51.833Z,20.70
2022-11-22T05:58:51.883Z,20.73
2022-11-22T05:59:51.830Z,20.72
2022-11-22T06:00:51.838Z,20.67
2022-11-22T06:01:51.801Z,20.62
2022-11-22T06:02:51.804Z,20.59
2022-11-22T06:03:51.790Z,20.57
2022-11-22T06:04:51.774Z,20.59
2022-11-22T06:05:51.764Z,20.62
2022-11-22T06:06:51.791Z,20.66
2022-11-22T06:07:51.824Z,20.67
2022-11-22T06:08:51.735Z,20.67
2022-11-22T06:09:52.482Z,20.64
2022-11-22T06:10:51.715Z,20.55
2022-11-22T06:11:51.751Z,20.51
2022-11-22T06:12:51.720Z,20.51
2022-11-22T06:13:51.672Z,20.50
2022-11-22T06:14:51.691Z,20.50
2022-11-22T06:15:51.625Z,20.51
2022-11-22T06:16:51.618Z,20.51
2022-11-22T06:17:51.618Z,20.50
2022-11-22T06:18:51.682Z,20.51
2022-11-22T06:20:04.391Z,20.51
2022-11-22T06:20:51.637Z,20.51
2022-11-22T06:21:51.598Z,20.51
2022-11-22T06:22:52.422Z,20.52
2022-11-22T06:23:51.521Z,20.55
2022-11-22T06:24:52.320Z,20.55
2022-11-22T06:25:51.556Z,20.59
2022-11-22T06:26:51.517Z,20.58
2022-11-22T06:27:51.479Z,20.61
2022-11-22T06:28:51.538Z,20.58
2022-11-22T06:29:51.492Z,20.54
2022-11-22T06:30:51.516Z,20.55
2022-11-22T06:31:51.474Z,20.57
2022-11-22T06:32:51.464Z,20.58
2022-11-22T06:33:51.443Z,20.59
2022-11-22T06:34:51.444Z,20.62
2022-11-22T06:35:51.440Z,20.66
2022-11-22T06:36:51.434Z,20.61
2022-11-22T06:37:54.903Z,20.59
2022-11-22T06:38:52.117Z,20.59
2022-11-22T06:39:51.352Z,20.58
2022-11-22T06:40:51.403Z,20.59
2022-11-22T06:41:51.355Z,20.58
2022-11-22T06:42:51.368Z,20.61
2022-11-22T06:43:51.282Z,20.58
2022-11-22T06:44:51.444Z,20.59
2022-11-22T06:45:51.299Z,20.61
2022-11-22T06:46:51.347Z,20.61
2022-11-22T06:47:51.292Z,20.58
2022-11-22T06:48:51.296Z,20.57
2022-11-22T06:49:51.254Z,20.58
2022-11-22T06:50:51.252Z,20.59
2022-11-22T06:51:51.249Z,20.58
2022-11-22T06:52:51.239Z,20.59
2022-11-22T06:53:51.284Z,20.58
2022-11-22T06:54:51.251Z,20.61
2022-11-22T06:55:53.475Z,20.61
2022-11-22T06:56:51.216Z,20.64
2022-11-22T06:57:51.165Z,20.62
2022-11-22T06:58:51.181Z,20.61
2022-11-22T06:59:51.139Z,20.59
2022-11-22T07:00:51.917Z,20.62
2022-11-22T07:01:51.297Z,20.61
2022-11-22T07:02:51.167Z,20.67
2022-11-22T07:03:51.108Z,20.72
2022-11-22T07:05:17.683Z,20.77
2022-11-22T07:05:51.076Z,20.80
2022-11-22T07:06:51.132Z,20.87
2022-11-22T07:07:51.092Z,20.85
2022-11-22T07:08:51.038Z,20.85
2022-11-22T07:09:56.231Z,20.88
2022-11-22T07:10:51.020Z,20.87
2022-11-22T07:11:51.001Z,20.91
2022-11-22T07:12:51.045Z,20.89
2022-11-22T07:13:50.988Z,20.88
2022-11-22T07:14:51.002Z,20.84
2022-11-22T07:15:51.636Z,20.84
2022-11-22T07:16:51.008Z,20.79
2022-11-22T07:17:50.960Z,20.76
2022-11-22T07:18:51.007Z,20.73
2022-11-22T07:19:50.931Z,20.70
2022-11-22T07:20:50.896Z,20.67
2022-11-22T07:21:50.907Z,20.64
2022-11-22T07:22:50.908Z,20.66
2022-11-22T07:23:50.907Z,20.64
2022-11-22T07:24:52.870Z,20.67
2022-11-22T07:25:50.855Z,20.76
2022-11-22T07:26:50.877Z,20.79
2022-11-22T07:27:50.810Z,20.88
2022-11-22T07:28:50.865Z,20.92
2022-11-22T07:29:50.784Z,20.95
2022-11-22T07:30:50.868Z,20.98
2022-11-22T07:31:50.779Z,20.95
2022-11-22T07:32:50.765Z,20.91
2022-11-22T07:33:50.725Z,20.88
2022-11-22T07:34:50.778Z,20.87
2022-11-22T07:35:50.738Z,20.87
2022-11-22T07:36:55.784Z,20.85
2022-11-22T07:37:50.693Z,20.88
2022-11-22T07:38:50.708Z,20.87
2022-11-22T07:39:50.680Z,20.88
2022-11-22T07:40:50.715Z,20.87
2022-11-22T07:41:50.670Z,20.87
2022-11-22T07:42:54.172Z,20.85
2022-11-22T07:43:50.681Z,20.82
2022-11-22T07:44:50.647Z,20.79
2022-11-22T07:45:50.603Z,20.73
2022-11-22T07:46:50.664Z,20.69
2022-11-22T07:47:50.587Z,20.61
2022-11-22T07:48:50.636Z,20.58
2022-11-22T07:49:50.538Z,20.57
2022-11-22T07:50:50.591Z,20.55
2022-11-22T07:51:50.516Z,20.58
2022-11-22T07:52:50.585Z,20.61
2022-11-22T07:53:50.565Z,20.66
2022-11-22T07:54:50.900Z,20.67
2022-11-22T07:55:50.493Z,20.72
2022-11-22T07:56:50.558Z,20.73
2022-11-22T07:57:51.663Z,20.77
2022-11-22T07:58:51.660Z,20.80
2022-11-22T07:59:51.014Z,20.85
2022-11-22T08:00:51.008Z,20.85
2022-11-22T08:01:51.472Z,20.82
2022-11-22T08:02:50.457Z,20.82
2022-11-22T08:03:50.431Z,20.85
2022-11-22T08:04:50.468Z,20.79
2022-11-22T08:05:50.357Z,20.72
2022-11-22T08:06:50.406Z,20.59
2022-11-22T08:07:50.459Z,20.55
2022-11-22T08:08:50.451Z,20.54
2022-11-22T08:09:50.324Z,20.55
2022-11-22T08:10:50.382Z,20.57
2022-11-22T08:11:50.291Z,20.55
2022-11-22T08:12:50.339Z,20.57
2022-11-22T08:13:51.077Z,20.55
2022-11-22T08:14:50.324Z,20.54
2022-11-22T08:15:51.532Z,20.51
2022-11-22T08:16:50.292Z,20.51
2022-11-22T08:17:50.220Z,20.51
2022-11-22T08:18:50.304Z,20.51
2022-11-22T08:19:50.241Z,20.48
2022-11-22T08:20:50.247Z,20.48
2022-11-22T08:21:56.990Z,20.48
2022-11-22T08:22:50.909Z,20.48
2022-11-22T08:23:50.204Z,20.47
2022-11-22T08:24:50.238Z,20.47
2022-11-22T08:25:50.171Z,20.48
2022-11-22T08:26:50.218Z,20.50
2022-11-22T08:27:50.167Z,20.50
2022-11-22T08:28:50.159Z,20.51
2022-11-22T08:29:50.144Z,20.52
2022-11-22T08:30:50.388Z,20.55
2022-11-22T08:31:50.119Z,20.55
2022-11-22T08:32:50.101Z,20.55
2022-11-22T08:33:50.091Z,20.57
2022-11-22T08:34:50.078Z,20.54
2022-11-22T08:35:51.052Z,20.54
2022-11-22T08:36:50.139Z,20.55
2022-11-22T08:37:50.043Z,20.57
2022-11-22T08:38:50.707Z,20.62
2022-11-22T08:39:50.050Z,20.64
2022-11-22T08:40:50.764Z,20.66
2022-11-22T08:41:50.882Z,20.66
2022-11-22T08:42:50.002Z,20.64
2022-11-22T08:43:49.988Z,20.67
2022-11-22T08:44:50.849Z,20.70
2022-11-22T08:45:49.954Z,20.74
2022-11-22T08:46:55.079Z,20.74
2022-11-22T08:47:49.945Z,20.76
2022-11-22T08:48:49.922Z,20.77
2022-11-22T08:49:49.884Z,20.79
2022-11-22T08:50:49.935Z,20.79
2022-11-22T08:51:49.883Z,20.74
2022-11-22T08:52:50.637Z,20.74
2022-11-22T08:53:49.868Z,20.74
2022-11-22T08:54:49.881Z,20.74
2022-11-22T08:55:49.856Z,20.73
2022-11-22T08:56:49.837Z,20.72
2022-11-22T08:57:50.517Z,20.74
2022-11-22T08:58:49.835Z,20.73
2022-11-22T08:59:49.766Z,20.72
2022-11-22T09:00:49.825Z,20.72
2022-11-22T09:01:49.863Z,20.72
2022-11-22T09:02:50.395Z,20.72
2022-11-22T09:03:49.738Z,20.70
2022-11-22T09:04:49.772Z,20.72
2022-11-22T09:10:12.608Z,20.77
2022-11-22T09:10:49.673Z,20.79
2022-11-22T09:11:49.730Z,20.77
2022-11-22T09:12:49.649Z,20.76
2022-11-22T09:13:49.659Z,20.74
2022-11-22T09:14:49.617Z,20.76
2022-11-22T09:15:49.659Z,20.76
2022-11-22T09:16:50.776Z,20.79
2022-11-22T09:17:49.652Z,20.84
2022-11-22T09:18:49.571Z,20.89
2022-11-22T09:19:49.609Z,20.88
2022-11-22T09:20:49.558Z,20.88
2022-11-22T09:21:49.607Z,20.91
2022-11-22T09:22:49.546Z,20.94
2022-11-22T09:23:49.554Z,20.94
2022-11-22T09:24:49.462Z,20.95
2022-11-22T09:25:49.497Z,20.98
2022-11-22T09:26:49.521Z,20.99
2022-11-22T09:27:49.483Z,21.01
2022-11-22T09:28:49.467Z,21.03
2022-11-22T09:29:49.667Z,21.06
2022-11-22T09:30:48.471Z,21.10
2022-11-22T09:31:49.437Z,21.12
2022-11-22T09:32:49.418Z,21.14
2022-11-22T09:33:49.388Z,21.14
2022-11-22T09:34:49.465Z,21.17
2022-11-22T09:35:49.420Z,21.21
2022-11-22T09:36:50.079Z,21.17
2022-11-22T09:37:49.371Z,21.17
2022-11-22T09:38:49.355Z,21.17
2022-11-22T09:39:49.357Z,21.17
2022-11-22T09:40:49.348Z,21.19
2022-11-22T09:41:52.883Z,21.21
2022-11-22T09:42:49.325Z,21.19
2022-11-22T09:43:49.352Z,21.22
2022-11-22T09:44:49.276Z,21.27
2022-11-22T09:45:49.317Z,21.28
2022-11-22T09:46:49.269Z,21.27
2022-11-22T09:47:49.256Z,21.22
2022-11-22T09:48:49.257Z,21.17
2022-11-22T09:49:49.263Z,21.22
2022-11-22T09:50:49.272Z,21.24
2022-11-22T09:51:49.200Z,21.25
2022-11-22T09:52:49.886Z,21.24
2022-11-22T09:53:49.238Z,21.24
2022-11-22T09:54:49.197Z,21.19
2022-11-22T09:55:49.158Z,21.24
2022-11-22T09:56:49.174Z,21.28
2022-11-22T09:57:49.146Z,21.35
2022-11-22T09:58:49.148Z,21.42
2022-11-22T09:59:49.132Z,21.42
2022-11-22T10:00:52.177Z,21.34
2022-11-22T10:01:50.132Z,21.28
2022-11-22T10:02:59.915Z,21.28
2022-11-22T10:03:50.036Z,21.34
2022-11-22T10:04:49.108Z,21.40
2022-11-22T10:05:49.073Z,21.44
2022-11-22T10:06:49.924Z,21.44
2022-11-22T10:07:49.085Z,21.46
2022-11-22T10:08:49.030Z,21.52
2022-11-22T10:09:49.000Z,21.59
2022-11-22T10:10:49.061Z,21.67
2022-11-22T10:11:49.915Z,21.69
2022-11-22T10:12:49.021Z,21.68
2022-11-22T10:13:48.971Z,21.64
2022-11-22T10:14:48.928Z,21.62
2022-11-22T10:15:48.958Z,21.64
2022-11-22T10:16:48.971Z,21.65
2022-11-22T10:17:48.937Z,21.68
2022-11-22T10:18:48.959Z,21.74
2022-11-22T10:19:48.901Z,21.84
2022-11-22T10:20:49.172Z,21.88
2022-11-22T10:21:48.872Z,21.90
2022-11-22T10:22:48.906Z,21.98
2022-11-22T10:23:48.878Z,22.03
2022-11-22T10:24:48.837Z,22.07
2022-11-22T10:25:48.821Z,22.15
2022-11-22T10:26:49.401Z,22.21
2022-11-22T10:27:48.791Z,22.24
2022-11-22T10:28:48.804Z,22.27
2022-11-22T10:29:48.824Z,22.14
2022-11-22T10:30:48.755Z,22.09
2022-11-22T10:31:48.774Z,21.98
2022-11-22T10:32:48.807Z,21.96
2022-11-22T10:33:48.748Z,22.02
2022-11-22T10:34:48.715Z,22.12
2022-11-22T10:35:49.491Z,22.22
2022-11-22T10:36:48.737Z,22.30
2022-11-22T10:37:49.405Z,22.37
2022-11-22T10:38:48.694Z,22.43
2022-11-22T10:39:48.687Z,22.45
2022-11-22T10:40:48.689Z,22.52
2022-11-22T10:41:48.615Z,22.55
2022-11-22T10:42:48.660Z,22.58
2022-11-22T10:43:48.621Z,22.62
2022-11-22T10:44:49.418Z,22.67
2022-11-22T10:47:00.766Z,22.80
2022-11-22T10:48:00.879Z,22.91
2022-11-22T10:49:01.561Z,22.97
2022-11-22T10:50:00.813Z,23.04
2022-11-22T10:51:00.841Z,23.05
2022-11-22T10:52:01.413Z,23.10
2022-11-22T10:53:00.800Z,23.12
2022-11-22T10:54:03.793Z,23.13
2022-11-22T10:55:00.775Z,23.04
2022-11-22T10:56:00.802Z,22.92
2022-11-22T10:57:00.742Z,22.73
2022-11-22T10:58:00.794Z,22.65
2022-11-22T10:59:00.743Z,22.67
2022-11-22T11:00:00.744Z,22.73
2022-11-22T11:01:01.311Z,22.79
2022-11-22T11:02:00.721Z,22.88
2022-11-22T11:03:01.402Z,22.98
2022-11-22T11:04:00.691Z,23.04
2022-11-22T11:05:01.422Z,23.05
2022-11-22T11:06:22.738Z,23.04
2022-11-22T11:07:16.716Z,22.86
2022-11-22T11:08:15.470Z,22.76
2022-11-22T11:09:54.969Z,22.75
2022-11-22T11:10:23.802Z,22.77
2022-11-22T11:11:00.580Z,22.76
2022-11-22T11:12:00.610Z,22.76
2022-11-22T11:13:00.562Z,22.76
2022-11-22T11:14:00.535Z,22.85
2022-11-22T11:15:00.556Z,22.98
2022-11-22T11:16:00.582Z,23.15
2022-11-22T11:17:00.567Z,23.31
2022-11-22T11:18:00.554Z,23.43
2022-11-22T11:19:01.132Z,23.50
2022-11-22T11:20:00.520Z,23.54
2022-11-22T11:21:00.500Z,23.39
2022-11-22T11:22:00.559Z,23.47
2022-11-22T11:23:14.831Z,23.55
2022-11-22T11:24:00.461Z,23.73
2022-11-22T11:25:00.516Z,23.85
2022-11-22T11:26:00.494Z,23.87
2022-11-22T11:27:00.417Z,23.90
2022-11-22T11:28:00.447Z,23.90
2022-11-22T11:29:00.350Z,23.90
2022-11-22T11:30:02.186Z,24.03
2022-11-22T11:31:00.406Z,24.15
2022-11-22T11:32:00.398Z,24.12
2022-11-22T11:33:00.331Z,24.21
2022-11-22T11:34:00.386Z,24.25
2022-11-22T11:35:01.469Z,24.32
2022-11-22T11:36:00.375Z,24.47
2022-11-22T11:37:00.299Z,24.61
2022-11-22T11:38:00.310Z,24.73
2022-11-22T11:39:00.260Z,24.85
2022-11-22T11:40:00.277Z,24.87
2022-11-22T11:41:00.873Z,24.83
2022-11-22T11:42:00.250Z,24.32
2022-11-22T11:43:00.929Z,23.98
2022-11-22T11:44:00.247Z,24.00
2022-11-22T11:45:00.190Z,23.94
2022-11-22T11:46:00.241Z,23.94
2022-11-22T11:47:00.154Z,24.03
2022-11-22T11:48:00.221Z,24.20
2022-11-22T11:49:00.181Z,24.28
2022-11-22T11:50:00.170Z,24.39
2022-11-22T11:51:00.124Z,24.46
2022-11-22T11:52:01.688Z,24.50
2022-11-22T11:53:09.799Z,24.55
2022-11-22T11:54:00.139Z,24.53
2022-11-22T11:55:08.704Z,24.62
2022-11-22T11:56:00.092Z,24.71
2022-11-22T11:57:00.049Z,24.69
2022-11-22T11:58:00.322Z,24.81
2022-11-22T11:59:00.923Z,24.83
2022-11-22T12:00:00.800Z,24.88
2022-11-22T12:01:00.026Z,24.85
2022-11-22T12:02:28.393Z,24.91
2022-11-22T12:03:00.446Z,24.98
2022-11-22T12:03:59.954Z,24.67
2022-11-22T12:05:00.019Z,24.45
2022-11-22T12:06:00.474Z,24.49
2022-11-22T12:07:03.112Z,24.50
2022-11-22T12:08:00.082Z,24.55
2022-11-22T12:08:59.998Z,24.67
2022-11-22T12:09:59.927Z,24.83
2022-11-22T12:10:59.944Z,24.99
2022-11-22T12:11:59.917Z,25.05
2022-11-22T12:13:04.264Z,25.13
2022-11-22T12:15:10.861Z,25.18
2022-11-22T12:15:59.844Z,25.28
2022-11-22T12:16:59.867Z,25.39
2022-11-22T12:17:59.833Z,25.40
2022-11-22T12:18:59.889Z,25.27
2022-11-22T12:19:59.812Z,25.32
2022-11-22T12:20:59.810Z,25.23
2022-11-22T12:21:59.819Z,25.18
2022-11-22T12:22:59.807Z,25.20
2022-11-22T12:24:13.491Z,25.23
2022-11-22T12:48:23.304Z,25.30
2022-11-22T12:48:29.700Z,25.35
2022-11-22T12:48:35.432Z,25.85
2022-11-22T12:49:35.479Z,25.97
2022-11-22T12:50:35.439Z,25.97
2022-11-22T12:51:35.466Z,25.92
2022-11-22T12:52:35.417Z,25.80
2022-11-22T12:53:35.383Z,25.70
2022-11-22T12:54:35.395Z,25.67
2022-11-22T12:55:35.387Z,25.67
2022-11-22T12:56:36.094Z,25.73
2022-11-22T12:57:35.369Z,25.73
2022-11-22T12:58:35.354Z,25.69
2022-11-22T12:59:36.324Z,25.70
2022-11-22T13:00:35.352Z,25.82
2022-11-22T13:01:35.406Z,25.91
2022-11-22T13:02:35.330Z,25.99
2022-11-22T13:03:35.304Z,25.97
2022-11-22T13:04:35.997Z,25.97
2022-11-22T13:05:35.349Z,25.97
2022-11-22T13:06:35.271Z,25.98
2022-11-22T13:07:35.326Z,26.05
2022-11-22T13:08:35.251Z,26.13
2022-11-22T13:09:35.290Z,26.26
2022-11-22T13:10:35.227Z,26.36
2022-11-22T13:11:36.289Z,26.33
2022-11-22T13:12:35.226Z,26.23
2022-11-22T13:13:35.158Z,26.09
2022-11-22T13:14:35.445Z,25.94
2022-11-22T13:15:35.184Z,25.95
2022-11-22T13:16:35.163Z,26.05
2022-11-22T13:17:35.192Z,26.20
2022-11-22T13:18:35.124Z,26.29
2022-11-22T13:19:35.109Z,26.33
2022-11-22T13:20:41.215Z,26.45
2022-11-22T13:21:35.073Z,26.48
2022-11-22T13:22:35.105Z,26.51
2022-11-22T13:23:35.839Z,26.52
2022-11-22T13:24:36.968Z,26.55
2022-11-22T13:25:35.735Z,26.54
2022-11-22T13:26:35.053Z,26.57
2022-11-22T13:27:35.056Z,26.52
2022-11-22T13:28:35.032Z,26.54
2022-11-22T13:29:35.005Z,26.60
2022-11-22T13:30:35.010Z,26.72
2022-11-22T13:31:40.684Z,26.81
2022-11-22T13:32:34.990Z,26.92
2022-11-22T13:33:34.958Z,26.85
2022-11-22T13:34:35.514Z,26.91
2022-11-22T13:35:34.944Z,27.00
2022-11-22T13:36:35.824Z,27.07
2022-11-22T13:37:34.947Z,27.03
2022-11-22T13:38:34.911Z,26.95
2022-11-22T13:39:34.901Z,26.97
2022-11-22T13:40:34.871Z,27.00
2022-11-22T13:41:34.871Z,26.97
2022-11-22T13:42:35.718Z,27.04
2022-11-22T13:43:34.861Z,27.10
2022-11-22T13:44:34.831Z,27.13
2022-11-22T13:45:34.803Z,27.19
2022-11-22T13:46:34.796Z,27.27
2022-11-22T13:47:34.844Z,27.29
2022-11-22T13:48:34.810Z,27.36
2022-11-22T13:49:38.939Z,27.46
2022-11-22T13:50:34.796Z,27.51
2022-11-22T13:51:34.781Z,27.49
2022-11-22T13:52:34.703Z,27.46
2022-11-22T13:53:48.572Z,27.44
2022-11-22T13:54:34.833Z,27.39
2022-11-22T13:55:41.590Z,27.27
2022-11-22T13:56:34.687Z,27.34
2022-11-22T13:57:34.763Z,27.39
2022-11-22T13:58:34.689Z,27.32
2022-11-22T13:59:34.869Z,27.32
2022-11-22T14:00:34.636Z,27.29
2022-11-22T14:01:35.959Z,27.24
2022-11-22T14:02:34.639Z,27.18
2022-11-22T14:03:36.833Z,27.09
2022-11-22T14:04:34.579Z,27.17
2022-11-22T14:05:41.010Z,27.24
2022-11-22T14:06:34.599Z,27.29
2022-11-22T14:07:34.677Z,27.32
2022-11-22T14:08:35.359Z,27.29
2022-11-22T14:09:34.607Z,27.25
2022-11-22T14:10:34.557Z,27.32
2022-11-22T14:11:39.194Z,27.46
2022-11-22T14:12:34.513Z,27.47
2022-11-22T14:13:34.566Z,27.44
2022-11-22T14:14:34.541Z,27.34
2022-11-22T14:32:57.933Z,27.19
2022-11-22T14:33:19.601Z,27.36
2022-11-22T14:34:14.878Z,27.49
2022-11-22T14:35:15.501Z,27.67
2022-11-22T14:36:14.895Z,27.74
2022-11-22T14:37:14.816Z,27.81
2022-11-22T14:38:14.861Z,27.85
2022-11-22T14:39:16.244Z,27.92
2022-11-22T14:40:14.748Z,27.92
2022-11-22T14:41:14.761Z,27.93
2022-11-22T14:42:14.780Z,27.84
2022-11-22T14:43:14.765Z,27.74
2022-11-22T14:44:14.804Z,27.67
2022-11-22T14:45:18.632Z,27.55
2022-11-22T14:46:37.239Z,27.50
2022-11-22T14:47:17.267Z,27.54